Aviation Digital Data Service (ADDS)

Output produced by METARs form (0010 UTC 21 April 2014)
found at http://aviationweather.gov/adds/metars/
 
KCAK 202333Z 2100/2124 15006KT P6SM SCT250 
     FM211600 22010G16KT P6SM BKN200